Orbital elements of FENGYUN 1C DEB
| Launched | 9 May 1999 |
| Flight ended | – |
| Launch site | Taiyuan Space Center, PRC |
| Owner | People's Republic of China |
| NORAD ID | 30676 |
| Date fetched |
Epoch osculation |
Inc. [°] |
Ecc. | RA asc node [hr] |
Arg Peri. [°] |
Mean anom [°] |
Mean motion [rev/day] |
Abs. mag |
| Date fetched |
Epoch osculation |
Inc. [°] |
Ecc. | RA asc node [hr] |
Arg Peri. [°] |
Mean anom [°] |
Mean motion [rev/day] |
Abs. mag |
| 2026 May 03 17:57 | 2026 Apr 29 10:37:19 | 98.2769 | 0.04697 | 19.4982 | 34.6812 | 328.4038 | 13.74623 | – |
| 2026 May 02 17:57 | 2026 Apr 29 10:37:19 | 98.2769 | 0.04697 | 19.4982 | 34.6812 | 328.4038 | 13.74623 | – |
| 2026 May 01 17:56 | 2026 Apr 29 10:37:19 | 98.2769 | 0.04697 | 19.4982 | 34.6812 | 328.4038 | 13.74623 | – |
| 2026 Apr 30 17:56 | 2026 Apr 29 10:37:19 | 98.2769 | 0.04697 | 19.4982 | 34.6812 | 328.4038 | 13.74623 | – |
| 2026 Apr 29 17:57 | 2026 Apr 24 04:50:59 | 98.2767 | 0.04700 | 19.1939 | 48.8965 | 328.4038 | 13.74623 | – |
| 2026 Apr 28 17:56 | 2026 Apr 24 04:50:59 | 98.2767 | 0.04700 | 19.1939 | 48.8965 | 328.4038 | 13.74623 | – |
| 2026 Apr 27 17:58 | 2026 Apr 24 04:50:59 | 98.2767 | 0.04700 | 19.1939 | 48.8965 | 328.4038 | 13.74623 | – |
| 2026 Apr 26 17:58 | 2026 Apr 24 04:50:59 | 98.2767 | 0.04700 | 19.1939 | 48.8965 | 328.4038 | 13.74623 | – |
| 2026 Apr 25 17:58 | 2026 Apr 24 04:50:59 | 98.2767 | 0.04700 | 19.1939 | 48.8965 | 328.4038 | 13.74623 | – |
| 2026 Apr 24 17:59 | 2026 Apr 24 04:50:59 | 98.2767 | 0.04700 | 19.1939 | 48.8965 | 328.4038 | 13.74623 | – |
| 2026 Apr 23 17:57 | 2026 Apr 18 17:50:06 | 98.2763 | 0.04703 | 18.8769 | 63.6974 | 328.4038 | 13.74623 | – |
| 2026 Apr 22 17:57 | 2026 Apr 18 17:50:06 | 98.2763 | 0.04703 | 18.8769 | 63.6974 | 328.4038 | 13.74623 | – |
| 2026 Apr 21 17:57 | 2026 Apr 18 17:50:06 | 98.2763 | 0.04703 | 18.8769 | 63.6974 | 328.4038 | 13.74623 | – |
| 2026 Apr 20 17:57 | 2026 Apr 18 17:50:06 | 98.2763 | 0.04703 | 18.8769 | 63.6974 | 328.4038 | 13.74623 | – |
| 2026 Apr 19 17:58 | 2026 Apr 18 17:50:06 | 98.2763 | 0.04703 | 18.8769 | 63.6974 | 328.4038 | 13.74623 | – |
| 2026 Apr 18 17:56 | 2026 Apr 10 22:54:58 | 98.2761 | 0.04706 | 18.4247 | 84.8044 | 328.4038 | 13.74623 | – |
| 2026 Apr 16 17:57 | 2026 Apr 10 22:54:58 | 98.2761 | 0.04706 | 18.4247 | 84.8044 | 328.4038 | 13.74623 | – |
| 2026 Apr 14 17:57 | 2026 Apr 10 22:54:58 | 98.2761 | 0.04706 | 18.4247 | 84.8044 | 328.4038 | 13.74623 | – |
| 2026 Apr 13 17:57 | 2026 Apr 10 22:54:58 | 98.2761 | 0.04706 | 18.4247 | 84.8044 | 328.4038 | 13.74623 | – |
| 2026 Apr 12 17:57 | 2026 Apr 07 18:03:02 | 98.2761 | 0.04707 | 18.2387 | 93.4791 | 328.4038 | 13.74623 | – |
| 2026 Apr 11 17:57 | 2026 Apr 07 18:03:02 | 98.2761 | 0.04707 | 18.2387 | 93.4791 | 328.4038 | 13.74623 | – |
| 2026 Apr 10 17:58 | 2026 Apr 07 18:03:02 | 98.2761 | 0.04707 | 18.2387 | 93.4791 | 328.4038 | 13.74623 | – |
| 2026 Apr 09 18:01 | 2026 Apr 07 18:03:02 | 98.2761 | 0.04707 | 18.2387 | 93.4791 | 328.4038 | 13.74623 | – |
| 2026 Apr 08 17:57 | 2026 Apr 07 18:03:02 | 98.2761 | 0.04707 | 18.2387 | 93.4791 | 328.4038 | 13.74623 | – |
| 2026 Apr 07 17:57 | 2026 Apr 02 05:16:46 | 98.2745 | 0.04708 | 17.9176 | 108.4701 | 328.4038 | 13.74623 | – |
| 2026 Apr 06 17:57 | 2026 Apr 02 05:16:46 | 98.2745 | 0.04708 | 17.9176 | 108.4701 | 328.4038 | 13.74623 | – |